Time;durP1;ratioP1;P1;durP2;ratioP2;P2;SDS_P1;SDS_P2;PMS_P1;PMS_P2;Temp;Humidity;BMP_temperature;BMP_pressure;BME280_temperature;BME280_humidity;BME280_pressure;Samples;Min_cycle;Max_cycle;Signal;HPM_P1;HPM_P2
2022/03/29 00:01:57;;;;;;;27.08;14.65;;;7.00;99.90;;;;;;4992676;28;20041;-86
2022/03/29 00:04:24;;;;;;;24.15;14.55;;;8.40;99.90;;;;;;5009477;28;20096;-86
2022/03/29 00:06:51;;;;;;;26.27;15.18;;;7.00;99.90;;;;;;4992888;28;20479;-86
2022/03/29 00:09:17;;;;;;;24.98;14.75;;;7.10;99.90;;;;;;4992203;28;20076;-86
2022/03/29 00:11:43;;;;;;;25.70;15.05;;;7.10;99.90;;;;;;4994321;28;20124;-86
2022/03/29 00:14:10;;;;;;;22.50;14.63;;;7.20;99.90;;;;;;4997934;28;20103;-86
2022/03/29 00:16:36;;;;;;;27.13;15.35;;;7.00;99.90;;;;;;4996263;28;20068;-86
2022/03/29 00:19:02;;;;;;;26.98;14.80;;;7.00;99.90;;;;;;4981839;28;20083;-86
2022/03/29 00:21:28;;;;;;;27.60;15.55;;;7.00;99.90;;;;;;4996988;28;20041;-86
2022/03/29 00:23:54;;;;;;;26.38;15.20;;;7.00;99.90;;;;;;5012372;28;20585;-86
2022/03/29 00:26:20;;;;;;;24.65;15.50;;;7.00;99.90;;;;;;4995396;28;20111;-85
2022/03/29 00:28:47;;;;;;;25.33;15.35;;;7.00;99.90;;;;;;4994175;28;20569;-86
2022/03/29 00:31:16;;;;;;;24.85;15.05;;;7.00;99.90;;;;;;4994236;28;20120;-86
2022/03/29 00:33:43;;;;;;;26.48;16.08;;;7.20;99.90;;;;;;4995878;28;20040;-85
2022/03/29 00:36:08;;;;;;;25.73;16.23;;;6.90;99.90;;;;;;5010902;28;20038;-85
2022/03/29 00:38:34;;;;;;;26.63;14.88;;;6.90;99.90;;;;;;4992488;28;20537;-86
2022/03/29 00:41:01;;;;;;;24.85;15.18;;;6.90;99.90;;;;;;5027368;28;20102;-85
2022/03/29 00:43:27;;;;;;;26.30;15.40;;;6.90;99.90;;;;;;4976355;28;20033;-86
2022/03/29 00:45:53;;;;;;;28.15;16.10;;;6.90;99.90;;;;;;5005145;28;20102;-86
2022/03/29 00:48:19;;;;;;;27.05;15.60;;;8.00;99.90;;;;;;4977066;28;20067;-86
2022/03/29 00:50:45;;;;;;;26.23;15.88;;;7.40;99.90;;;;;;5009169;28;20049;-85
2022/03/29 00:53:12;;;;;;;29.90;16.08;;;6.80;99.90;;;;;;4997699;28;20176;-85
2022/03/29 00:55:38;;;;;;;28.30;16.15;;;6.80;99.90;;;;;;5007378;28;20042;-86
2022/03/29 00:58:07;;;;;;;27.70;15.68;;;6.80;99.90;;;;;;5011796;28;20040;-86
2022/03/29 01:00:35;;;;;;;24.05;15.50;;;6.80;99.90;;;;;;4995560;28;20180;-85
2022/03/29 01:03:04;;;;;;;25.90;16.10;;;6.80;99.90;;;;;;5027298;28;20178;-86
2022/03/29 01:05:31;;;;;;;29.30;16.95;;;6.80;99.90;;;;;;5012595;28;20130;-86
2022/03/29 01:07:57;;;;;;;29.33;16.83;;;6.80;99.90;;;;;;4996754;28;20041;-86
2022/03/29 01:10:24;;;;;;;27.33;16.13;;;6.80;99.90;;;;;;5026543;28;20127;-86
2022/03/29 01:12:51;;;;;;;29.45;17.00;;;6.80;99.90;;;;;;5011716;28;20147;-86
2022/03/29 01:15:19;;;;;;;28.08;16.08;;;7.40;99.90;;;;;;5005357;28;20045;-86
2022/03/29 01:17:46;;;;;;;29.15;16.38;;;6.80;99.90;;;;;;4991360;28;20041;-85
2022/03/29 01:20:25;;;;;;;29.10;16.10;;;7.10;99.90;;;;;;5025462;28;20033;-85
2022/03/29 01:22:52;;;;;;;28.88;16.35;;;6.80;99.90;;;;;;5026859;28;20165;-86
2022/03/29 01:25:20;;;;;;;25.85;16.55;;;7.80;99.90;;;;;;5026457;28;20405;-86
2022/03/29 01:27:48;;;;;;;30.05;17.00;;;7.80;99.90;;;;;;4992845;28;20037;-85
2022/03/29 01:30:15;;;;;;;26.67;16.35;;;7.20;99.90;;;;;;5012472;28;20045;-86
2022/03/29 01:32:44;;;;;;;26.30;16.02;;;8.10;99.90;;;;;;5013052;28;20514;-85
2022/03/29 01:35:11;;;;;;;27.77;15.73;;;6.80;99.90;;;;;;5027228;28;20260;-86
2022/03/29 01:37:37;;;;;;;25.67;15.93;;;6.80;99.90;;;;;;5029424;28;20044;-85
2022/03/29 01:40:12;;;;;;;29.17;16.05;;;6.80;99.90;;;;;;5001056;28;20050;-85
2022/03/29 01:42:39;;;;;;;30.20;16.65;;;6.80;99.90;;;;;;4985188;28;20053;-86
2022/03/29 01:45:05;;;;;;;30.73;16.60;;;6.80;99.90;;;;;;4972137;28;20045;-86
2022/03/29 01:47:31;;;;;;;28.10;16.45;;;6.80;99.90;;;;;;4977216;28;20525;-86
2022/03/29 01:49:57;;;;;;;28.50;17.70;;;;;;;;;;4971140;28;20042;-86
2022/03/29 01:52:23;;;;;;;28.33;16.25;;;6.80;99.90;;;;;;4988778;28;20588;-86
2022/03/29 01:54:49;;;;;;;30.17;17.40;;;7.10;99.90;;;;;;4974775;28;20029;-86
2022/03/29 01:57:15;;;;;;;28.77;16.10;;;6.80;99.90;;;;;;4974043;28;20102;-85
2022/03/29 02:02:24;;;;;;;26.85;16.25;;;6.80;99.90;;;;;;4989328;28;20042;-86
2022/03/29 02:04:50;;;;;;;26.92;16.45;;;7.50;99.90;;;;;;4959593;28;20038;-86
2022/03/29 02:07:16;;;;;;;29.60;16.52;;;6.80;99.90;;;;;;4988610;28;20045;-85
2022/03/29 02:09:43;;;;;;;29.63;16.85;;;7.70;99.90;;;;;;4995731;28;20036;-85
2022/03/29 02:12:12;;;;;;;29.27;16.48;;;8.00;99.90;;;;;;4972976;28;20041;-86
2022/03/29 02:14:38;;;;;;;28.70;16.15;;;6.60;99.90;;;;;;4973614;28;20423;-85
2022/03/29 02:17:05;;;;;;;29.20;17.08;;;6.60;99.90;;;;;;4956126;28;20108;-85
2022/03/29 02:19:31;;;;;;;29.85;18.05;;;6.60;99.90;;;;;;4993227;28;20041;-84
2022/03/29 02:21:57;;;;;;;33.75;17.55;;;7.30;99.90;;;;;;5001093;28;20041;-85
2022/03/29 02:24:23;;;;;;;30.35;16.55;;;6.50;99.90;;;;;;4983623;28;20081;-85
2022/03/29 02:26:49;;;;;;;24.95;15.45;;;7.30;99.90;;;;;;5006483;28;20061;-85
2022/03/29 02:29:15;;;;;;;26.05;15.65;;;6.50;99.90;;;;;;4954330;28;20076;-86
2022/03/29 02:31:40;;;;;;;28.73;16.58;;;8.30;99.90;;;;;;4956324;28;20077;-85
2022/03/29 02:34:06;;;;;;;31.23;16.52;;;6.80;99.90;;;;;;4969996;28;20483;-85
2022/03/29 02:36:32;;;;;;;27.73;16.00;;;6.60;99.90;;;;;;4986891;28;20522;-86
2022/03/29 02:38:58;;;;;;;26.00;15.98;;;6.60;99.90;;;;;;4956033;28;20049;-86
2022/03/29 02:41:23;;;;;;;29.58;16.80;;;6.90;99.90;;;;;;4992972;28;20494;-85
2022/03/29 02:43:49;;;;;;;27.75;16.52;;;6.60;99.90;;;;;;4965715;28;20037;-85
2022/03/29 02:46:15;;;;;;;30.08;16.63;;;7.80;99.90;;;;;;4991191;28;20037;-85
2022/03/29 02:48:41;;;;;;;30.58;16.35;;;7.80;99.90;;;;;;4992442;28;20042;-85
2022/03/29 02:51:06;;;;;;;28.40;15.90;;;6.60;99.90;;;;;;4973409;28;20060;-85
2022/03/29 02:53:33;;;;;;;30.88;17.02;;;6.60;99.90;;;;;;4975806;28;20065;-85
2022/03/29 02:55:58;;;;;;;29.42;16.27;;;6.60;99.90;;;;;;4977102;28;20541;-85
2022/03/29 02:58:24;;;;;;;29.88;16.92;;;7.20;99.90;;;;;;4991847;28;20045;-85
2022/03/29 03:00:51;;;;;;;28.92;16.60;;;6.60;99.90;;;;;;4978660;28;20088;-85
2022/03/29 03:03:17;;;;;;;29.95;17.88;;;8.00;99.90;;;;;;4993521;28;20046;-86
2022/03/29 03:05:43;;;;;;;32.95;16.98;;;7.70;99.90;;;;;;4989968;28;20044;-86
2022/03/29 03:08:09;;;;;;;32.70;17.90;;;6.60;99.90;;;;;;4992336;28;20045;-86
2022/03/29 03:10:34;;;;;;;31.38;16.63;;;7.10;99.90;;;;;;4978242;28;20104;-86
2022/03/29 03:13:00;;;;;;;35.72;18.10;;;6.60;99.90;;;;;;4978095;28;20038;-86
2022/03/29 03:15:26;;;;;;;30.70;17.30;;;8.30;99.90;;;;;;4976679;28;20116;-86
2022/03/29 03:17:53;;;;;;;31.73;17.70;;;6.60;99.90;;;;;;4987498;28;20430;-85
2022/03/29 03:20:21;;;;;;;28.98;16.67;;;7.90;99.90;;;;;;4991374;28;20471;-85
2022/03/29 03:22:48;;;;;;;27.20;16.27;;;7.80;99.90;;;;;;5008663;28;20530;-86
2022/03/29 03:25:14;;;;;;;32.72;17.25;;;7.70;99.90;;;;;;4976058;28;20096;-85
2022/03/29 03:27:40;;;;;;;32.97;17.77;;;7.50;99.90;;;;;;4992865;28;20037;-85
2022/03/29 03:30:10;;;;;;;30.52;17.98;;;6.60;99.90;;;;;;4990227;28;20503;-85
2022/03/29 03:32:36;;;;;;;26.98;15.55;;;6.70;99.90;;;;;;5005075;28;20069;-86
2022/03/29 03:35:02;;;;;;;30.98;17.20;;;6.70;99.90;;;;;;5006035;28;20042;-86
2022/03/29 03:37:28;;;;;;;30.15;17.83;;;6.60;99.90;;;;;;4992655;28;20042;-85
2022/03/29 03:39:54;;;;;;;29.73;16.45;;;6.60;99.90;;;;;;4979589;28;20096;-85
2022/03/29 03:42:20;;;;;;;27.63;16.15;;;6.60;99.90;;;;;;4988767;28;20045;-85
2022/03/29 03:44:46;;;;;;;29.27;16.75;;;6.60;99.90;;;;;;5005473;28;20037;-85
2022/03/29 03:47:11;;;;;;;29.50;16.23;;;7.60;99.90;;;;;;4994801;28;20039;-86
2022/03/29 03:49:38;;;;;;;27.92;16.55;;;6.70;99.90;;;;;;4988002;28;20037;-85
2022/03/29 03:52:06;;;;;;;34.20;16.83;;;6.60;99.90;;;;;;5028771;28;20041;-85
2022/03/29 03:54:35;;;;;;;28.55;15.63;;;6.60;99.90;;;;;;5028590;28;20043;-85
2022/03/29 03:57:02;;;;;;;32.60;17.70;;;6.60;99.90;;;;;;5012583;28;20398;-85
2022/03/29 03:59:28;;;;;;;33.80;16.75;;;6.50;99.90;;;;;;4992402;28;20044;-86
2022/03/29 04:01:54;;;;;;;30.08;17.83;;;6.60;99.90;;;;;;5002622;28;20029;-86
2022/03/29 04:04:19;;;;;;;32.70;17.08;;;6.60;99.90;;;;;;4974531;28;20037;-86
2022/03/29 04:06:45;;;;;;;30.45;17.13;;;6.60;99.90;;;;;;4994044;28;21156;-86
2022/03/29 04:09:11;;;;;;;29.52;17.80;;;7.80;99.90;;;;;;5014101;28;20133;-86
2022/03/29 04:11:36;;;;;;;29.27;17.70;;;6.60;99.90;;;;;;4996651;28;20057;-86
2022/03/29 04:14:02;;;;;;;33.38;17.92;;;6.60;99.90;;;;;;5015874;28;20057;-86
2022/03/29 04:16:28;;;;;;;33.10;17.65;;;7.30;99.90;;;;;;4993717;28;20147;-86
2022/03/29 04:18:54;;;;;;;30.27;16.95;;;6.50;99.90;;;;;;5007424;28;20045;-86
2022/03/29 04:21:20;;;;;;;28.88;17.05;;;7.10;99.90;;;;;;5026775;28;20039;-86
2022/03/29 04:23:45;;;;;;;31.38;18.13;;;8.20;99.90;;;;;;4993863;28;20068;-86
2022/03/29 04:26:11;;;;;;;28.27;16.95;;;7.50;99.90;;;;;;4998774;28;20051;-86
2022/03/29 04:28:37;;;;;;;31.15;17.75;;;7.30;99.90;;;;;;5008825;28;20040;-86
2022/03/29 04:31:03;;;;;;;28.80;16.33;;;6.60;99.90;;;;;;5008348;28;20040;-86
2022/03/29 04:33:29;;;;;;;31.75;18.50;;;6.60;99.90;;;;;;5012520;28;20041;-86
2022/03/29 04:35:56;;;;;;;31.45;17.75;;;6.60;99.90;;;;;;5005117;28;20402;-86
2022/03/29 04:38:23;;;;;;;30.05;17.67;;;8.30;99.90;;;;;;5014640;28;20064;-86
2022/03/29 04:40:49;;;;;;;32.92;18.88;;;6.70;99.90;;;;;;5008416;28;20040;-86
2022/03/29 04:43:15;;;;;;;32.50;17.90;;;6.90;99.90;;;;;;5028103;28;20037;-86
2022/03/29 04:45:41;;;;;;;29.92;17.05;;;6.60;99.90;;;;;;5014647;28;20037;-85
2022/03/29 04:48:07;;;;;;;29.65;18.15;;;6.60;99.90;;;;;;5012170;28;20482;-85
2022/03/29 04:50:32;;;;;;;33.80;19.20;;;6.60;99.90;;;;;;4991412;28;20110;-85
2022/03/29 04:52:58;;;;;;;31.17;17.83;;;6.70;99.90;;;;;;5029240;28;20440;-86
2022/03/29 04:55:24;;;;;;;33.72;18.38;;;8.00;99.90;;;;;;5007662;28;20375;-85
2022/03/29 04:57:50;;;;;;;30.55;17.48;;;7.90;99.90;;;;;;4994826;28;20037;-85
2022/03/29 05:00:21;;;;;;;30.50;17.45;;;5.40;99.90;;;;;;5015262;28;20038;-85
2022/03/29 05:02:47;;;;;;;33.22;17.90;;;6.80;99.90;;;;;;5027894;28;20043;-85
2022/03/29 05:05:14;;;;;;;37.22;19.67;;;8.00;99.90;;;;;;4999427;28;20033;-85
2022/03/29 05:07:44;;;;;;;35.88;19.75;;;6.60;99.90;;;;;;5010558;28;20072;-85
2022/03/29 05:10:11;;;;;;;34.65;18.25;;;6.90;99.90;;;;;;5008463;28;20511;-85
2022/03/29 05:12:45;;;;;;;33.75;18.17;;;6.60;99.90;;;;;;5028640;28;20044;-86
2022/03/29 05:15:13;;;;;;;35.78;19.05;;;7.40;99.90;;;;;;5011244;28;20045;-85
2022/03/29 05:17:39;;;;;;;34.85;19.83;;;6.80;99.90;;;;;;4984263;28;20041;-85
2022/03/29 05:20:07;;;;;;;30.08;18.55;;;7.50;99.90;;;;;;4991885;28;20037;-85
2022/03/29 05:22:50;;;;;;;35.40;19.67;;;6.60;99.90;;;;;;5026372;28;20036;-85
2022/03/29 05:25:18;;;;;;;35.13;19.17;;;7.70;99.90;;;;;;5027078;28;20139;-84
2022/03/29 05:27:45;;;;;;;36.28;20.13;;;6.60;99.90;;;;;;5005094;28;20580;-85
2022/03/29 05:30:12;;;;;;;33.17;19.33;;;6.60;99.90;;;;;;5026485;28;20589;-85
2022/03/29 05:32:38;;;;;;;33.05;18.73;;;7.10;99.90;;;;;;5027654;28;20133;-85
2022/03/29 05:35:07;;;;;;;39.92;20.33;;;6.60;99.90;;;;;;5006379;28;20048;-85
2022/03/29 05:37:33;;;;;;;33.65;19.88;;;6.60;99.90;;;;;;5013723;28;20033;-85
2022/03/29 05:39:58;;;;;;;39.45;21.10;;;7.50;99.90;;;;;;5027154;28;20052;-85
2022/03/29 05:42:24;;;;;;;34.17;19.83;;;6.80;99.90;;;;;;4991712;28;20060;-86
2022/03/29 05:44:50;;;;;;;33.45;21.60;;;6.80;99.90;;;;;;5009655;28;20040;-85
2022/03/29 05:50:00;;;;;;;38.50;21.75;;;6.60;99.90;;;;;;5010223;28;20092;-85
2022/03/29 05:52:26;;;;;;;36.78;20.77;;;6.70;99.90;;;;;;4993645;28;20494;-85
2022/03/29 05:54:52;;;;;;;38.83;20.55;;;7.30;99.90;;;;;;5016684;28;20375;-85
2022/03/29 05:57:19;;;;;;;38.03;20.70;;;7.10;99.90;;;;;;5016190;28;20048;-85
2022/03/29 05:59:45;;;;;;;37.30;19.73;;;6.70;99.90;;;;;;4993437;28;20041;-86
2022/03/29 06:02:12;;;;;;;40.50;19.98;;;6.70;99.90;;;;;;4994108;28;20394;-86
2022/03/29 06:04:39;;;;;;;34.67;20.70;;;6.80;99.90;;;;;;4979283;28;20075;-85
2022/03/29 06:07:06;;;;;;;37.80;21.05;;;6.70;99.90;;;;;;5011648;28;20120;-86
2022/03/29 06:09:35;;;;;;;38.22;20.73;;;6.90;99.90;;;;;;5004783;28;20120;-86
2022/03/29 06:12:03;;;;;;;33.88;20.95;;;7.20;99.90;;;;;;4991474;28;20068;-86
2022/03/29 06:14:28;;;;;;;35.08;20.08;;;6.80;99.90;;;;;;5025468;28;20131;-84
2022/03/29 06:16:55;;;;;;;36.17;20.40;;;7.00;99.90;;;;;;5011392;28;20136;-86
2022/03/29 06:19:21;;;;;;;31.02;19.85;;;7.70;99.90;;;;;;4988693;28;20041;-85
2022/03/29 06:21:47;;;;;;;37.15;20.38;;;8.10;99.90;;;;;;5012148;28;20040;-89
2022/03/29 06:24:13;;;;;;;39.15;21.33;;;7.00;99.90;;;;;;4975109;28;20045;-89
2022/03/29 06:26:40;;;;;;;36.33;21.40;;;6.90;99.90;;;;;;5026039;28;20046;-89
2022/03/29 06:29:07;;;;;;;34.08;20.58;;;6.90;99.90;;;;;;5020550;28;20044;-92
2022/03/29 06:31:33;;;;;;;37.10;20.70;;;6.90;99.90;;;;;;5025617;28;20041;-95
2022/03/29 06:33:59;;;;;;;36.03;21.00;;;6.90;99.90;;;;;;5015466;28;20043;-92
2022/03/29 06:36:25;;;;;;;35.95;20.60;;;8.00;99.90;;;;;;5003504;28;20049;-91
2022/03/29 06:38:51;;;;;;;37.95;20.95;;;7.30;99.90;;;;;;5018375;28;20083;-94
2022/03/29 06:41:17;;;;;;;39.15;21.23;;;6.90;99.90;;;;;;4984366;28;20090;-93
2022/03/29 06:43:43;;;;;;;37.33;20.52;;;7.00;99.90;;;;;;4992602;28;20040;-92
2022/03/29 06:46:09;;;;;;;35.90;21.20;;;7.00;99.90;;;;;;5029275;28;20101;-93
2022/03/29 06:48:35;;;;;;;34.30;19.88;;;7.00;99.90;;;;;;5040570;28;20159;-94
2022/03/29 06:51:01;;;;;;;36.20;21.63;;;7.00;99.90;;;;;;5018626;28;20144;-93
2022/03/29 06:53:27;;;;;;;37.60;22.00;;;8.70;99.90;;;;;;5018661;28;20069;-92
2022/03/29 06:55:53;;;;;;;36.00;20.45;;;6.40;99.90;;;;;;4981242;28;20502;-94
2022/03/29 06:58:19;;;;;;;39.00;20.67;;;7.10;99.90;;;;;;5008235;28;20040;-95
2022/03/29 07:00:45;;;;;;;39.55;20.55;;;7.40;99.90;;;;;;5011439;28;20067;-91
2022/03/29 07:03:11;;;;;;;36.35;22.17;;;8.40;99.90;;;;;;4975527;28;20041;-92
2022/03/29 07:05:40;;;;;;;40.13;21.05;;;7.50;99.90;;;;;;4995635;28;20049;-90
2022/03/29 07:08:06;;;;;;;34.78;20.42;;;7.00;99.90;;;;;;4994888;28;20110;-89
2022/03/29 07:13:16;;;;;;;35.60;19.80;;;7.10;99.90;;;;;;5024964;28;20065;-93
2022/03/29 07:15:42;;;;;;;36.33;20.65;;;7.10;99.90;;;;;;5011374;28;20048;-90
2022/03/29 07:18:08;;;;;;;34.45;19.92;;;7.20;99.90;;;;;;4979302;28;20037;-91
2022/03/29 07:20:34;;;;;;;35.08;19.83;;;7.10;99.90;;;;;;5029565;28;20272;-91
2022/03/29 07:23:00;;;;;;;35.08;18.42;;;7.20;99.90;;;;;;5008008;28;20253;-91
2022/03/29 07:25:31;;;;;;;32.45;18.02;;;7.30;99.90;;;;;;5017352;28;20033;-91
2022/03/29 07:27:57;;;;;;;33.35;18.77;;;7.40;99.90;;;;;;5022102;28;20041;-96
2022/03/29 07:30:24;;;;;;;34.17;18.60;;;7.40;99.90;;;;;;4998401;28;20120;-93
2022/03/29 07:32:54;;;;;;;36.70;19.05;;;8.80;99.90;;;;;;5004727;28;20036;-91
2022/03/29 07:35:22;;;;;;;31.10;17.48;;;7.60;99.90;;;;;;5035978;28;20028;-93
2022/03/29 07:37:59;;;;;;;42.35;18.40;;;7.70;99.90;;;;;;5032359;28;20040;-95
2022/03/29 07:40:27;;;;;;;36.85;19.15;;;7.80;99.90;;;;;;5009718;28;20556;-91
2022/03/29 07:42:54;;;;;;;32.33;18.83;;;7.80;99.90;;;;;;5012347;28;20425;-92
2022/03/29 07:45:21;;;;;;;34.80;17.85;;;7.80;99.90;;;;;;5017740;28;20045;-95
2022/03/29 07:47:55;;;;;;;29.00;16.38;;;7.80;99.90;;;;;;5005044;28;20168;-92
2022/03/29 07:50:24;;;;;;;34.83;17.17;;;8.00;99.90;;;;;;5006795;28;20033;-96
2022/03/29 07:52:53;;;;;;;33.45;16.63;;;8.10;99.90;;;;;;5010226;28;20044;-96
2022/03/29 07:55:20;;;;;;;29.92;15.95;;;6.60;99.90;;;;;;5038729;28;20041;-95
2022/03/29 07:57:46;;;;;;;31.73;16.02;;;8.20;99.90;;;;;;5024675;28;20136;-93
2022/03/29 08:00:31;;;;;;;32.50;15.85;;;8.20;99.90;;;;;;5007611;28;20064;-96
2022/03/29 08:03:04;;;;;;;37.25;16.35;;;8.20;99.90;;;;;;5045045;28;20129;-93
2022/03/29 08:05:32;;;;;;;26.77;15.98;;;8.20;99.90;;;;;;5016563;28;20042;-94
2022/03/29 08:08:01;;;;;;;29.30;16.08;;;8.40;99.90;;;;;;4997834;28;20045;-91
2022/03/29 08:10:29;;;;;;;31.95;15.82;;;8.20;99.90;;;;;;5001509;28;20057;-90
2022/03/29 08:13:04;;;;;;;31.38;16.77;;;8.90;99.90;;;;;;5018993;28;20072;-95
2022/03/29 08:15:30;;;;;;;31.30;15.38;;;8.10;99.90;;;;;;5022721;28;20120;-92
2022/03/29 08:17:58;;;;;;;31.92;15.23;;;8.20;99.90;;;;;;5033563;28;20036;-94
2022/03/29 08:20:24;;;;;;;33.83;16.42;;;8.20;99.90;;;;;;5034853;28;20141;-92
2022/03/29 08:22:50;;;;;;;29.00;15.95;;;8.20;99.90;;;;;;5036832;28;20037;-94
2022/03/29 08:25:17;;;;;;;34.83;16.52;;;8.20;99.90;;;;;;5015994;28;20049;-94
2022/03/29 08:27:45;;;;;;;28.95;15.75;;;8.30;99.90;;;;;;5006873;28;20048;-95
2022/03/29 08:30:12;;;;;;;35.65;16.70;;;8.30;99.90;;;;;;5002471;28;20048;-95
2022/03/29 08:32:38;;;;;;;31.15;16.33;;;8.30;99.90;;;;;;4998027;28;20097;-92
2022/03/29 08:35:06;;;;;;;30.98;15.98;;;8.40;99.90;;;;;;5011567;28;20076;-92
2022/03/29 08:37:35;;;;;;;30.65;15.70;;;8.30;99.90;;;;;;4998081;28;20030;-93
2022/03/29 08:40:05;;;;;;;27.05;14.15;;;9.70;99.90;;;;;;4992777;28;20065;-91
2022/03/29 08:42:31;;;;;;;27.30;14.13;;;8.40;99.90;;;;;;5015885;28;20506;-92
2022/03/29 08:44:58;;;;;;;32.28;14.32;;;8.40;99.90;;;;;;4994129;28;20048;-95
2022/03/29 08:47:25;;;;;;;26.80;12.10;;;9.10;99.90;;;;;;5016789;28;20033;-92
2022/03/29 08:49:52;;;;;;;23.17;11.15;;;8.50;99.90;;;;;;5006597;28;20036;-93
2022/03/29 08:52:20;;;;;;;26.35;11.70;;;8.50;99.90;;;;;;5022361;28;20177;-94
2022/03/29 08:54:47;;;;;;;32.17;11.73;;;8.50;99.90;;;;;;5034777;28;20033;-93
2022/03/29 08:57:13;;;;;;;26.23;10.82;;;10.00;99.90;;;;;;5041692;28;20514;-94
2022/03/29 08:59:41;;;;;;;25.85;11.23;;;8.60;99.90;;;;;;5015731;28;20055;-93
2022/03/29 09:02:20;;;;;;;23.92;10.70;;;8.60;99.90;;;;;;5048324;28;20044;-93
2022/03/29 09:05:10;;;;;;;25.40;10.82;;;8.70;99.90;;;;;;5033417;28;20111;-93
2022/03/29 09:07:56;;;;;;;25.80;10.82;;;8.70;99.90;;;;;;5025564;28;20037;-91
2022/03/29 09:10:39;;;;;;;23.90;10.52;;;8.70;99.90;;;;;;5021590;28;20076;-93
2022/03/29 09:13:26;;;;;;;21.08;9.63;;;8.80;99.90;;;;;;5021212;28;20043;-91
2022/03/29 09:15:57;;;;;;;28.38;9.55;;;8.80;99.90;;;;;;5050326;28;20136;-95
2022/03/29 09:18:25;;;;;;;22.30;9.57;;;9.00;99.90;;;;;;5141735;22;20046;-93
2022/03/29 09:21:15;;;;;;;23.83;9.18;;;9.10;99.90;;;;;;5019532;28;20050;-92
2022/03/29 09:23:43;;;;;;;26.33;10.10;;;9.30;99.90;;;;;;5026117;28;20049;-92
2022/03/29 09:26:28;;;;;;;23.55;9.20;;;9.40;99.90;;;;;;5026448;28;20029;-92
2022/03/29 09:28:54;;;;;;;22.00;8.73;;;8.80;99.90;;;;;;5024809;28;20037;-92
2022/03/29 09:31:25;;;;;;;25.67;10.15;;;9.90;99.90;;;;;;5008917;28;21148;-92
2022/03/29 09:33:51;;;;;;;28.58;9.13;;;9.50;99.90;;;;;;5004054;28;20175;-92
2022/03/29 09:36:20;;;;;;;26.63;9.07;;;9.60;99.90;;;;;;5005682;28;20103;-92
2022/03/29 09:38:51;;;;;;;19.48;7.97;;;9.70;99.90;;;;;;5002800;28;20034;-92
2022/03/29 09:41:20;;;;;;;27.33;9.38;;;9.70;99.90;;;;;;5020218;28;20060;-92
2022/03/29 09:44:01;;;;;;;23.58;8.27;;;9.70;99.90;;;;;;4999391;28;20038;-90
2022/03/29 09:46:27;;;;;;;23.33;8.57;;;9.60;99.90;;;;;;5017988;28;20112;-94
2022/03/29 09:48:59;;;;;;;22.35;9.05;;;9.50;99.90;;;;;;4963747;28;20069;-93
2022/03/29 09:51:27;;;;;;;22.50;8.57;;;9.60;99.90;;;;;;4995621;28;20033;-92
2022/03/29 09:53:58;;;;;;;23.75;9.30;;;9.70;99.90;;;;;;4989061;28;20045;-95
2022/03/29 09:56:30;;;;;;;21.40;8.50;;;9.90;99.90;;;;;;5006478;28;20042;-92
2022/03/29 09:59:10;;;;;;;25.10;8.88;;;9.70;99.90;;;;;;4992025;28;20033;-92
2022/03/29 10:01:47;;;;;;;23.23;8.82;;;9.80;99.90;;;;;;5016945;28;20045;-96
2022/03/29 10:04:17;;;;;;;21.33;9.18;;;9.90;99.90;;;;;;5028901;28;20097;-96
2022/03/29 10:06:48;;;;;;;23.70;9.32;;;9.90;99.90;;;;;;5032411;28;20038;-96
2022/03/29 10:09:26;;;;;;;26.95;9.77;;;10.00;99.90;;;;;;5020563;28;20120;-95
2022/03/29 10:12:05;;;;;;;23.70;8.63;;;10.10;99.90;;;;;;5011431;28;20379;-95
2022/03/29 10:14:39;;;;;;;21.73;7.78;;;10.10;99.90;;;;;;5001484;28;20081;-96
2022/03/29 10:17:12;;;;;;;19.25;8.10;;;10.10;99.90;;;;;;5003992;28;20065;-96
2022/03/29 10:19:41;;;;;;;;;;;10.20;99.90;;;;;;5116066;23;20033;-91
2022/03/29 10:22:14;;;;;;;20.58;8.95;;;10.20;99.90;;;;;;5022995;28;20048;-91
2022/03/29 10:24:40;;;;;;;19.50;7.68;;;10.10;99.90;;;;;;5032465;28;20334;-91
2022/03/29 10:27:09;;;;;;;20.77;7.40;;;10.10;99.90;;;;;;5020231;28;20033;-91
2022/03/29 10:29:35;;;;;;;19.60;6.57;;;10.10;99.90;;;;;;5030630;28;20016;-90
2022/03/29 10:32:05;;;;;;;18.30;7.47;;;10.10;99.90;;;;;;5014398;28;20029;-91
2022/03/29 10:34:42;;;;;;;20.08;7.40;;;10.10;99.90;;;;;;5022305;28;20017;-91
2022/03/29 10:37:21;;;;;;;23.02;7.85;;;10.00;99.90;;;;;;5035869;28;20040;-92
2022/03/29 10:40:03;;;;;;;21.13;7.40;;;10.20;99.90;;;;;;5037718;28;20048;-92
2022/03/29 10:42:42;;;;;;;20.05;6.97;;;9.10;99.90;;;;;;5041848;28;20025;-90
2022/03/29 10:45:14;;;;;;;20.27;7.30;;;10.30;99.90;;;;;;5031281;28;20044;-91
2022/03/29 10:47:44;;;;;;;18.02;7.25;;;10.50;99.90;;;;;;5023400;28;20025;-90
2022/03/29 10:50:11;;;;;;;17.15;6.65;;;10.70;99.90;;;;;;5039371;28;20316;-90
2022/03/29 10:52:49;;;;;;;20.95;6.78;;;10.40;99.90;;;;;;5025316;28;20016;-90
2022/03/29 10:55:28;;;;;;;18.58;6.95;;;10.40;99.90;;;;;;5023772;28;20217;-91
2022/03/29 10:58:14;;;;;;;18.63;6.47;;;10.60;99.90;;;;;;5044039;28;20053;-90
2022/03/29 11:00:42;;;;;;;19.52;6.05;;;10.70;99.90;;;;;;5042673;28;20486;-91
2022/03/29 11:03:22;;;;;;;16.92;5.97;;;10.70;99.90;;;;;;5026506;28;20064;-91
2022/03/29 11:06:06;;;;;;;18.45;6.13;;;10.80;99.90;;;;;;5038150;28;20306;-91
2022/03/29 11:08:34;;;;;;;19.73;6.00;;;10.90;99.90;;;;;;5014595;28;20093;-91
2022/03/29 11:11:00;;;;;;;19.75;6.72;;;11.10;99.90;;;;;;5015816;28;20032;-92
2022/03/29 11:13:27;;;;;;;19.42;6.13;;;11.10;99.90;;;;;;5001383;28;20059;-92
2022/03/29 11:15:53;;;;;;;21.23;5.95;;;11.10;99.90;;;;;;5015210;28;20044;-91
2022/03/29 11:18:38;;;;;;;22.42;6.80;;;11.10;99.90;;;;;;5030550;28;20092;-91
2022/03/29 11:21:05;;;;;;;16.33;6.15;;;11.00;99.90;;;;;;5022761;28;20204;-92
2022/03/29 11:23:34;;;;;;;18.45;6.20;;;10.90;99.90;;;;;;4992320;28;20087;-90
2022/03/29 11:26:14;;;;;;;22.30;6.60;;;10.80;99.90;;;;;;5021132;28;20043;-90
2022/03/29 11:28:48;;;;;;;21.30;6.53;;;10.80;99.90;;;;;;5036891;28;20072;-92
2022/03/29 11:31:14;;;;;;;21.55;6.63;;;10.70;99.90;;;;;;5028297;28;20026;-92
2022/03/29 11:33:41;;;;;;;18.35;6.75;;;10.60;99.90;;;;;;5009727;28;20071;-92
2022/03/29 11:36:07;;;;;;;21.75;6.88;;;10.60;99.90;;;;;;5018947;28;20036;-92
2022/03/29 11:38:36;;;;;;;15.82;6.10;;;10.50;99.90;;;;;;4971538;28;20171;-92
2022/03/29 11:41:05;;;;;;;16.30;6.35;;;10.60;99.90;;;;;;4993503;28;20229;-92
2022/03/29 11:43:32;;;;;;;18.98;7.22;;;10.50;99.90;;;;;;5008196;28;20017;-92
2022/03/29 11:45:58;;;;;;;21.27;6.82;;;10.40;99.90;;;;;;5015966;28;20045;-92
2022/03/29 11:48:26;;;;;;;19.65;7.25;;;10.40;99.90;;;;;;4992148;28;20155;-91
2022/03/29 11:50:53;;;;;;;17.00;6.88;;;10.30;99.90;;;;;;5000785;28;20160;-91
2022/03/29 11:53:26;;;;;;;18.08;7.13;;;10.30;99.90;;;;;;5004468;28;20113;-92
2022/03/29 11:55:58;;;;;;;18.75;7.07;;;10.40;99.90;;;;;;5016057;28;20026;-92
2022/03/29 11:58:37;;;;;;;19.48;6.88;;;10.40;99.90;;;;;;5034327;28;20026;-92
2022/03/29 12:01:10;;;;;;;18.48;6.70;;;10.40;99.90;;;;;;5015224;28;20026;-92
2022/03/29 12:03:39;;;;;;;16.33;6.53;;;10.50;99.90;;;;;;5026655;28;20025;-92
2022/03/29 12:06:13;;;;;;;20.45;7.05;;;10.50;99.90;;;;;;5003424;28;20026;-92
2022/03/29 12:08:53;;;;;;;22.15;6.75;;;10.50;99.90;;;;;;5025596;28;20067;-92
2022/03/29 12:11:39;;;;;;;17.08;6.38;;;10.40;99.90;;;;;;5019020;28;20088;-92
2022/03/29 12:14:16;;;;;;;20.58;7.13;;;10.30;99.90;;;;;;4996755;28;20037;-92
2022/03/29 12:16:44;;;;;;;19.13;7.05;;;10.40;99.90;;;;;;5009342;28;20233;-92
2022/03/29 12:19:11;;;;;;;21.95;7.57;;;10.40;99.90;;;;;;5022657;28;20137;-92
2022/03/29 12:21:38;;;;;;;19.15;7.50;;;10.30;99.90;;;;;;5037014;28;20298;-92
2022/03/29 12:24:08;;;;;;;20.88;7.13;;;10.20;99.90;;;;;;5011121;28;20038;-92
2022/03/29 12:26:48;;;;;;;20.00;7.68;;;10.10;99.90;;;;;;5011316;28;20021;-92
2022/03/29 12:29:17;;;;;;;16.52;7.28;;;10.20;99.90;;;;;;5000121;28;20121;-92
2022/03/29 12:31:44;;;;;;;21.42;8.90;;;10.40;99.90;;;;;;5015898;28;20035;-92
2022/03/29 12:34:12;;;;;;;20.17;8.30;;;10.30;99.90;;;;;;5011366;28;20030;-92
2022/03/29 12:36:49;;;;;;;23.00;8.13;;;10.20;99.90;;;;;;5026514;28;20215;-92
2022/03/29 12:39:14;;;;;;;19.52;8.40;;;10.20;99.90;;;;;;5036251;28;20025;-91
2022/03/29 12:41:41;;;;;;;22.80;8.15;;;10.30;99.90;;;;;;4996928;28;20049;-92
2022/03/29 12:44:10;;;;;;;21.65;8.40;;;10.20;99.90;;;;;;5013596;28;20047;-92
2022/03/29 12:46:39;;;;;;;22.80;8.80;;;10.30;99.90;;;;;;5001465;28;20025;-92
2022/03/29 12:49:05;;;;;;;18.95;8.65;;;10.40;99.90;;;;;;5019465;28;20025;-92
2022/03/29 12:51:37;;;;;;;21.27;8.52;;;10.20;99.90;;;;;;5017237;28;20092;-91
2022/03/29 12:54:05;;;;;;;21.85;9.77;;;10.40;99.90;;;;;;5010530;28;20049;-92